Haukur — OZ2119 — position and weather

sailwx.info

Track history (hours):
 
Tides and Currents Weather Stations Pressure Air Temp Water Temp Dewpoint Dewpoint Depression Visibility Wind Speed Wind Dir Waves Ship Positions

Haukur

Last reported at 2016-Sep-22 04:33 UTC. Time now 2016-Sep-25 00:18 UTC.
Position N 55°02' E 019°15'.

Length 75 m; draft 4.7 m.

Type: Cargo ship. MMSI: 231812000.

Date/timePositionNaut miles runAvg speedWind from/ knotsBaromVisibWave heightAir tempDewpointWater temp
2016-Sep-22 04:33N 55°02' E 019°15'9 9.4
2016-Sep-22 03:33N 54°54' E 019°08'27 9.0
2016-Sep-22 00:33N 54°32' E 018°42'6 5.8
2016-Sep-21 23:33N 54°32' E 018°32'0 0.0
2016-Sep-21 22:32N 54°32' E 018°32'0 0.0
2016-Sep-21 19:32N 54°32' E 018°32'0 0.0
2016-Sep-21 16:32N 54°32' E 018°32'0 0.0
2016-Sep-21 09:33N 54°32' E 018°32'0 0.0
2016-Sep-21 08:33N 54°32' E 018°32'0 0.0
2016-Sep-21 05:32N 54°32' E 018°32'4 2.0
2016-Sep-21 03:33N 54°32' E 018°38'6 5.6
2016-Sep-21 02:33N 54°33' E 018°48'51 5.6
2016-Sep-20 17:33N 54°53' E 017°28'67 9.4
2016-Sep-20 10:26N 54°53' E 015°32'1910.1
2016-Sep-20 08:33N 54°56' E 014°59'1010.3
2016-Sep-20 07:33N 54°58' E 014°42'1010.0
2016-Sep-20 06:33N 55°02' E 014°26'4010.0
2016-Sep-20 02:33N 55°13' E 013°19'25 8.4
2016-Sep-19 23:33N 55°24' E 012°40'4010.0
2016-Sep-19 19:33N 56°04' E 012°36'10 9.8
2016-Sep-19 18:33N 56°11' E 012°22'54 2.3
2016-Sep-18 19:18N 56°40' E 011°00'35 8.8
2016-Sep-18 15:19N 57°14' E 010°43'7 8.6
2016-Sep-18 14:31N 57°20' E 010°42'110 7.6
2016-Sep-18 00:11N 57°53' E 007°27'12 7.4
2016-Sep-17 22:33N 57°53' E 007°04'8 7.5
2016-Sep-17 21:32N 57°56' E 006°51'7 6.9
2016-Sep-17 20:33N 57°60' E 006°40'9 6.9
2016-Sep-17 19:16N 58°04' E 006°25'45 7.9
2016-Sep-17 13:33N 58°28' E 005°13'8 8.2
2016-Sep-17 12:33N 58°33' E 005°00'17 8.3
2016-Sep-17 10:28N 58°43' E 004°33'8 8.2
2016-Sep-17 09:33N 58°48' E 004°22'145 9.0
2016-Sep-16 17:33N 60°19' E 000°41'19 9.5
2016-Sep-16 15:33N 60°31' E 000°11'  
Track history (hours):
 
Tides and Currents Weather Stations Pressure Air Temp Water Temp Dewpoint Dewpoint Depression Visibility Wind Speed Wind Dir Waves Ship Positions

Haukur

Last reported at 2016-Sep-22 04:33 UTC. Time now 2016-Sep-25 00:18 UTC.
Position N 55°02' E 019°15'.

Length 75 m; draft 4.7 m.

Type: Cargo ship. MMSI: 231812000.

Date/timePositionNaut miles runAvg speedWind from/ knotsBaromVisibWave heightAir tempDewpointWater temp
2016-Sep-22 04:33N 55°02' E 019°15'9 9.4
2016-Sep-22 03:33N 54°54' E 019°08'27 9.0
2016-Sep-22 00:33N 54°32' E 018°42'6 5.8
2016-Sep-21 23:33N 54°32' E 018°32'0 0.0
2016-Sep-21 22:32N 54°32' E 018°32'0 0.0
2016-Sep-21 19:32N 54°32' E 018°32'0 0.0
2016-Sep-21 16:32N 54°32' E 018°32'0 0.0
2016-Sep-21 09:33N 54°32' E 018°32'0 0.0
2016-Sep-21 08:33N 54°32' E 018°32'0 0.0
2016-Sep-21 05:32N 54°32' E 018°32'4 2.0
2016-Sep-21 03:33N 54°32' E 018°38'6 5.6
2016-Sep-21 02:33N 54°33' E 018°48'51 5.6
2016-Sep-20 17:33N 54°53' E 017°28'67 9.4
2016-Sep-20 10:26N 54°53' E 015°32'1910.1
2016-Sep-20 08:33N 54°56' E 014°59'1010.3
2016-Sep-20 07:33N 54°58' E 014°42'1010.0
2016-Sep-20 06:33N 55°02' E 014°26'4010.0
2016-Sep-20 02:33N 55°13' E 013°19'25 8.4
2016-Sep-19 23:33N 55°24' E 012°40'4010.0
2016-Sep-19 19:33N 56°04' E 012°36'10 9.8
2016-Sep-19 18:33N 56°11' E 012°22'54 2.3
2016-Sep-18 19:18N 56°40' E 011°00'35 8.8
2016-Sep-18 15:19N 57°14' E 010°43'7 8.6
2016-Sep-18 14:31N 57°20' E 010°42'110 7.6
2016-Sep-18 00:11N 57°53' E 007°27'12 7.4
2016-Sep-17 22:33N 57°53' E 007°04'8 7.5
2016-Sep-17 21:32N 57°56' E 006°51'7 6.9
2016-Sep-17 20:33N 57°60' E 006°40'9 6.9
2016-Sep-17 19:16N 58°04' E 006°25'45 7.9
2016-Sep-17 13:33N 58°28' E 005°13'8 8.2
2016-Sep-17 12:33N 58°33' E 005°00'17 8.3
2016-Sep-17 10:28N 58°43' E 004°33'8 8.2
2016-Sep-17 09:33N 58°48' E 004°22'145 9.0
2016-Sep-16 17:33N 60°19' E 000°41'19 9.5
2016-Sep-16 15:33N 60°31' E 000°11'  

Dump ship's entire track history